Time;durP1;ratioP1;P1;durP2;ratioP2;P2;SDS_P1;SDS_P2;PMS_P1;PMS_P2;Temp;Humidity;BMP_temperature;BMP_pressure;BME280_temperature;BME280_humidity;BME280_pressure;Samples;Min_cycle;Max_cycle;Signal;HPM_P1;HPM_P2
2022/08/07 00:02:13;;;;;;;2.85;1.85;;;;;;;;;;6181830;28;20281;-68
2022/08/07 00:05:15;;;;;;;2.23;1.83;;;;;;;;;;6182058;28;20277;-68
2022/08/07 00:08:17;;;;;;;3.55;1.80;;;;;;;;;;6181201;28;20277;-68
2022/08/07 00:11:20;;;;;;;4.70;2.10;;;;;;;;;;6180148;28;20062;-68
2022/08/07 00:14:22;;;;;;;3.25;1.85;;;;;;;;;;6183053;28;20059;-68
2022/08/07 00:17:24;;;;;;;5.03;2.40;;;;;;;;;;6182096;28;20105;-68
2022/08/07 00:20:26;;;;;;;2.58;2.10;;;;;;;;;;6184936;28;20042;-68
2022/08/07 00:23:28;;;;;;;4.15;2.30;;;;;;;;;;6178071;28;20054;-68
2022/08/07 00:26:32;;;;;;;3.13;2.53;;;;;;;;;;6183619;28;20101;-69
2022/08/07 00:29:33;;;;;;;4.00;2.55;;;;;;;;;;6182122;28;20056;-68
2022/08/07 00:32:35;;;;;;;4.68;2.30;;;;;;;;;;6183744;28;20118;-68
2022/08/07 00:35:37;;;;;;;2.50;2.30;;;;;;;;;;6178777;28;20050;-70
2022/08/07 00:38:39;;;;;;;4.28;2.30;;;;;;;;;;6181482;28;20059;-68
2022/08/07 00:41:48;;;;;;;2.92;2.25;;;;;;;;;;6182736;28;20141;-71
2022/08/07 00:44:50;;;;;;;3.92;2.20;;;;;;;;;;6181876;28;20062;-70
2022/08/07 00:47:51;;;;;;;2.78;2.30;;;;;;;;;;6179872;28;20050;-68
2022/08/07 00:50:54;;;;;;;3.83;2.35;;;;;;;;;;6180709;28;20050;-71
2022/08/07 00:53:56;;;;;;;3.58;2.40;;;;;;;;;;6180847;28;20055;-68
2022/08/07 00:56:59;;;;;;;2.63;2.00;;;;;;;;;;6182534;28;20374;-69
2022/08/07 01:00:01;;;;;;;3.33;2.08;;;;;;;;;;6181411;28;20054;-69
2022/08/07 01:03:03;;;;;;;3.58;2.20;;;;;;;;;;6178846;28;20051;-68
2022/08/07 01:06:05;;;;;;;5.30;2.22;;;;;;;;;;6179540;28;20057;-68
2022/08/07 01:09:06;;;;;;;3.35;2.22;;;;;;;;;;6180089;28;20062;-68
2022/08/07 01:12:10;;;;;;;2.42;2.17;;;;;;;;;;6180172;28;20047;-68
2022/08/07 01:15:11;;;;;;;3.25;2.58;;;;;;;;;;6183975;28;20399;-68
2022/08/07 01:18:13;;;;;;;3.30;2.50;;;;;;;;;;6181386;28;20062;-68
2022/08/07 01:21:18;;;;;;;3.05;2.28;;;;;;;;;;6183346;28;20277;-68
2022/08/07 01:24:21;;;;;;;2.85;2.45;;;;;;;;;;6183709;28;20054;-69
2022/08/07 01:27:22;;;;;;;4.53;2.30;;;;;;;;;;6185328;28;20046;-69
2022/08/07 01:30:26;;;;;;;2.67;2.30;;;;;;;;;;6187294;28;20047;-68
2022/08/07 01:33:28;;;;;;;2.65;1.98;;;;;;;;;;6186147;28;20218;-68
2022/08/07 01:36:31;;;;;;;2.45;2.20;;;;;;;;;;6184783;28;20090;-69
2022/08/07 01:39:33;;;;;;;2.25;2.05;;;;;;;;;;6184494;28;20054;-68
2022/08/07 01:42:35;;;;;;;6.68;2.47;;;;;;;;;;6185466;28;20249;-68
2022/08/07 01:45:37;;;;;;;2.15;1.95;;;;;;;;;;6184946;28;20050;-68
2022/08/07 01:48:41;;;;;;;2.92;2.13;;;;;;;;;;6185240;28;20269;-67
2022/08/07 01:51:44;;;;;;;3.08;2.20;;;;;;;;;;6185289;28;20046;-69
2022/08/07 01:54:45;;;;;;;;;;;;;;;;;;6186825;28;20053;-68
2022/08/07 01:57:47;;;;;;;2.78;2.30;;;;;;;;;;6184855;28;19917;-68
2022/08/07 02:00:53;;;;;;;4.43;2.53;;;;;;;;;;6187234;28;20058;-68
2022/08/07 02:04:09;;;;;;;3.45;2.40;;;;;;;;;;6184807;28;20061;-68
2022/08/07 02:07:13;;;;;;;2.85;2.55;;;;;;;;;;6183287;28;20062;-68
2022/08/07 02:10:16;;;;;;;4.40;2.20;;;;;;;;;;6187675;28;20062;-68
2022/08/07 02:13:18;;;;;;;3.08;2.38;;;;;;;;;;6186950;28;20125;-69
2022/08/07 02:16:20;;;;;;;5.57;2.15;;;;;;;;;;6188885;28;20057;-69
2022/08/07 02:19:23;;;;;;;2.80;2.37;;;;;;;;;;6191518;28;20046;-69
2022/08/07 02:22:26;;;;;;;3.25;2.15;;;;;;;;;;6183375;28;20050;-68
2022/08/07 02:25:30;;;;;;;4.00;2.03;;;;;;;;;;6184667;28;20067;-69
2022/08/07 02:28:33;;;;;;;3.45;2.38;;;;;;;;;;6184315;28;20050;-68
2022/08/07 02:31:35;;;;;;;3.13;2.58;;;;;;;;;;6181402;28;20054;-68
2022/08/07 02:34:37;;;;;;;2.67;2.43;;;;;;;;;;6187418;28;20105;-68
2022/08/07 02:37:41;;;;;;;2.45;2.00;;;;;;;;;;6192153;28;20054;-69
2022/08/07 02:40:43;;;;;;;3.05;2.20;;;;;;;;;;6194535;28;20093;-68
2022/08/07 02:43:45;;;;;;;3.15;1.60;;;;;;;;;;6193008;28;20042;-68
2022/08/07 02:46:48;;;;;;;2.97;1.60;;;;;;;;;;6189819;28;20058;-67
2022/08/07 02:49:50;;;;;;;;;;;;;;;;;;6190652;28;20066;-68
2022/08/07 02:52:56;;;;;;;2.90;1.90;;;;;;;;;;6194079;28;19929;-68
2022/08/07 02:55:59;;;;;;;2.65;1.50;;;;;;;;;;6190225;28;20046;-68
2022/08/07 02:59:04;;;;;;;1.95;1.50;;;;;;;;;;6192635;28;20082;-70
2022/08/07 03:02:06;;;;;;;2.00;1.63;;;;;;;;;;6186592;28;20118;-69
2022/08/07 03:05:10;;;;;;;2.30;1.80;;;;;;;;;;6187838;28;20060;-68
2022/08/07 03:08:13;;;;;;;4.57;1.90;;;;;;;;;;6188427;28;20055;-68
2022/08/07 03:11:15;;;;;;;;;;;;;;;;;;6182583;28;20097;-70
2022/08/07 03:14:17;;;;;;;2.85;1.52;;;;;;;;;;6181216;28;19985;-71
2022/08/07 03:17:19;;;;;;;1.35;1.10;;;;;;;;;;6184637;28;20054;-69
2022/08/07 03:20:21;;;;;;;1.42;1.20;;;;;;;;;;6181556;28;20059;-68
2022/08/07 03:23:25;;;;;;;2.33;1.10;;;;;;;;;;6183775;28;20125;-68
2022/08/07 03:26:30;;;;;;;1.73;1.63;;;;;;;;;;6181279;28;20051;-69
2022/08/07 03:29:35;;;;;;;1.27;1.10;;;;;;;;;;6180192;28;20376;-71
2022/08/07 03:32:39;;;;;;;1.60;1.30;;;;;;;;;;6182540;28;20054;-69
2022/08/07 03:35:41;;;;;;;1.60;1.50;;;;;;;;;;6182697;28;20054;-70
2022/08/07 03:38:45;;;;;;;1.60;1.30;;;;;;;;;;6183565;28;20332;-68
2022/08/07 03:41:47;;;;;;;2.70;1.30;;;;;;;;;;6181234;28;20066;-69
2022/08/07 03:44:50;;;;;;;1.77;1.20;;;;;;;;;;6180240;28;20420;-68
2022/08/07 03:47:51;;;;;;;1.45;1.35;;;;;;;;;;6185614;28;20046;-68
2022/08/07 03:50:54;;;;;;;1.77;1.25;;;;;;;;;;6182972;28;20081;-70
2022/08/07 03:53:57;;;;;;;1.48;1.35;;;;;;;;;;6182173;28;20065;-67
2022/08/07 03:56:59;;;;;;;2.42;1.50;;;;;;;;;;6180379;28;20063;-71
2022/08/07 04:00:01;;;;;;;1.83;1.50;;;;;;;;;;6181641;28;20053;-68
2022/08/07 04:03:03;;;;;;;4.53;1.88;;;;;;;;;;6180752;28;20055;-69
2022/08/07 04:06:08;;;;;;;4.20;2.00;;;;;;;;;;6182918;28;20348;-67
2022/08/07 04:09:11;;;;;;;2.20;2.00;;;;;;;;;;6181557;28;20057;-68
2022/08/07 04:12:13;;;;;;;2.60;1.90;;;;;;;;;;6181855;28;20285;-66
2022/08/07 04:15:16;;;;;;;2.85;1.90;;;;;;;;;;6180412;28;20125;-71
2022/08/07 04:18:17;;;;;;;5.57;2.37;;;;;;;;;;6179980;28;20462;-68
2022/08/07 04:21:19;;;;;;;2.88;2.17;;;;;;;;;;6181448;28;20069;-69
2022/08/07 04:24:23;;;;;;;3.47;2.03;;;;;;;;;;6183553;28;20047;-69
2022/08/07 04:27:24;;;;;;;;;;;;;;;;;;6181067;28;20046;-71
2022/08/07 04:30:26;;;;;;;3.83;2.20;;;;;;;;;;6179692;28;19917;-65
2022/08/07 04:33:28;;;;;;;4.13;2.53;;;;;;;;;;6182472;28;20105;-68
2022/08/07 04:36:29;;;;;;;2.63;2.42;;;;;;;;;;6180621;28;20054;-71
2022/08/07 04:39:33;;;;;;;4.95;2.17;;;;;;;;;;6182335;28;20047;-68
2022/08/07 04:42:34;;;;;;;2.67;2.47;;;;;;;;;;6182110;28;20117;-70
2022/08/07 04:45:43;;;;;;;3.03;2.13;;;;;;;;;;6183012;28;20059;-68
2022/08/07 04:48:55;;;;;;;2.97;2.50;;;;;;;;;;6182659;28;20043;-68
2022/08/07 04:52:03;;;;;;;3.60;2.40;;;;;;;;;;6179534;28;20051;-68
2022/08/07 04:55:13;;;;;;;3.15;2.40;;;;;;;;;;6179591;28;20058;-68
2022/08/07 04:58:20;;;;;;;4.63;2.35;;;;;;;;;;6183742;28;20114;-68
2022/08/07 05:01:32;;;;;;;3.58;2.40;;;;;;;;;;6185631;28;20047;-69
2022/08/07 05:04:41;;;;;;;5.15;2.72;;;;;;;;;;6187584;28;20058;-68
2022/08/07 05:07:50;;;;;;;3.10;2.55;;;;;;;;;;6186927;28;20341;-68
2022/08/07 05:10:58;;;;;;;3.42;2.15;;;;;;;;;;6184475;28;20117;-70
2022/08/07 05:14:03;;;;;;;4.43;2.42;;;;;;;;;;6186032;28;20054;-68
2022/08/07 05:17:08;;;;;;;3.80;2.10;;;;;;;;;;6186801;28;20051;-68
2022/08/07 05:20:12;;;;;;;2.17;1.92;;;;;;;;;;6186768;28;20047;-69
2022/08/07 05:23:18;;;;;;;4.13;2.13;;;;;;;;;;6184942;28;20101;-68
2022/08/07 05:26:23;;;;;;;5.13;2.20;;;;;;;;;;6186585;28;20329;-71
2022/08/07 05:29:26;;;;;;;2.42;1.80;;;;;;;;;;6185170;28;20054;-68
2022/08/07 05:32:28;;;;;;;2.10;1.50;;;;;;;;;;6187050;28;20270;-69
2022/08/07 05:35:31;;;;;;;1.98;1.60;;;;;;;;;;6186549;28;20053;-69
2022/08/07 05:38:33;;;;;;;;;;;;;;;;;;6185547;28;20054;-71
2022/08/07 05:41:37;;;;;;;2.95;1.90;;;;;;;;;;6185097;28;19921;-68
2022/08/07 05:44:40;;;;;;;1.73;1.50;;;;;;;;;;6186854;28;20058;-68
2022/08/07 05:47:42;;;;;;;2.67;1.88;;;;;;;;;;6185196;28;20062;-69
2022/08/07 05:50:44;;;;;;;2.50;1.80;;;;;;;;;;6186708;28;20046;-70
2022/08/07 05:53:46;;;;;;;2.70;1.90;;;;;;;;;;6185131;28;20050;-69
2022/08/07 05:56:50;;;;;;;3.30;1.97;;;;;;;;;;6184457;28;20061;-68
2022/08/07 05:59:52;;;;;;;3.42;1.75;;;;;;;;;;6184706;28;20051;-68
2022/08/07 06:02:56;;;;;;;2.88;1.88;;;;;;;;;;6186223;28;20055;-68
2022/08/07 06:05:58;;;;;;;2.85;1.73;;;;;;;;;;6184663;28;20055;-67
2022/08/07 06:09:00;;;;;;;2.88;1.80;;;;;;;;;;6183436;28;20066;-69
2022/08/07 06:12:04;;;;;;;2.90;1.80;;;;;;;;;;6183776;28;20047;-70
2022/08/07 06:15:08;;;;;;;2.30;1.80;;;;;;;;;;6184194;28;20054;-68
2022/08/07 06:18:11;;;;;;;2.60;2.03;;;;;;;;;;6184639;28;20057;-68
2022/08/07 06:21:13;;;;;;;3.25;1.83;;;;;;;;;;6186824;28;20101;-70
2022/08/07 06:24:15;;;;;;;2.63;1.88;;;;;;;;;;6184603;28;20061;-68
2022/08/07 06:27:22;;;;;;;2.35;2.03;;;;;;;;;;6183109;28;20062;-68
2022/08/07 06:30:23;;;;;;;4.15;2.20;;;;;;;;;;6185576;28;20054;-68
2022/08/07 06:33:25;;;;;;;3.10;2.30;;;;;;;;;;6184415;28;20281;-70
2022/08/07 06:36:27;;;;;;;3.65;2.28;;;;;;;;;;6186847;28;20053;-69
2022/08/07 06:39:30;;;;;;;2.40;2.20;;;;;;;;;;6180483;28;20050;-68
2022/08/07 06:42:36;;;;;;;5.28;2.78;;;;;;;;;;6182152;28;21139;-68
2022/08/07 06:45:38;;;;;;;2.63;2.10;;;;;;;;;;6181073;28;20051;-69
2022/08/07 06:48:40;;;;;;;3.63;2.13;;;;;;;;;;6184628;28;20215;-68
2022/08/07 06:51:43;;;;;;;2.30;1.92;;;;;;;;;;6182752;28;20105;-68
2022/08/07 06:54:45;;;;;;;;;;;;;;;;;;6182833;28;20054;-69
2022/08/07 06:57:49;;;;;;;5.05;2.30;;;;;;;;;;6183977;28;19925;-68
2022/08/07 07:00:50;;;;;;;2.92;2.30;;;;;;;;;;6181518;28;20054;-68
2022/08/07 07:03:55;;;;;;;2.47;2.28;;;;;;;;;;6183321;28;20329;-68
2022/08/07 07:06:58;;;;;;;4.85;2.50;;;;;;;;;;6176857;28;20098;-71
2022/08/07 07:09:59;;;;;;;3.13;2.17;;;;;;;;;;6183386;28;20118;-70
2022/08/07 07:13:11;;;;;;;2.75;2.20;;;;;;;;;;6182444;28;20042;-68
2022/08/07 07:16:17;;;;;;;2.05;1.83;;;;;;;;;;6182366;28;20051;-68
2022/08/07 07:19:22;;;;;;;3.00;2.40;;;;;;;;;;6188801;28;20376;-71
2022/08/07 07:22:25;;;;;;;2.13;1.70;;;;;;;;;;6183021;28;20046;-69
2022/08/07 07:25:26;;;;;;;3.30;2.00;;;;;;;;;;6180544;28;20055;-69
2022/08/07 07:28:35;;;;;;;2.30;2.00;;;;;;;;;;6181324;28;20250;-69
2022/08/07 07:31:40;;;;;;;2.67;1.67;;;;;;;;;;6180615;28;20047;-68
2022/08/07 07:34:44;;;;;;;2.75;2.10;;;;;;;;;;6181890;28;20078;-68
2022/08/07 07:37:47;;;;;;;2.58;1.73;;;;;;;;;;6180284;28;20257;-68
2022/08/07 07:40:50;;;;;;;3.63;1.88;;;;;;;;;;6180852;28;20081;-68
2022/08/07 07:43:54;;;;;;;5.13;1.90;;;;;;;;;;6178496;28;20094;-69
2022/08/07 07:46:57;;;;;;;1.98;1.83;;;;;;;;;;6181640;28;20050;-68
2022/08/07 07:49:59;;;;;;;2.83;1.50;;;;;;;;;;6181309;28;20057;-69
2022/08/07 07:53:01;;;;;;;;;;;;;;;;;;6180292;28;20325;-70
2022/08/07 07:56:03;;;;;;;2.65;1.90;;;;;;;;;;6179280;28;19918;-71
2022/08/07 07:59:07;;;;;;;3.00;2.20;;;;;;;;;;6182800;28;20057;-69
2022/08/07 08:02:11;;;;;;;2.40;1.92;;;;;;;;;;6182303;28;20519;-69
2022/08/07 08:05:13;;;;;;;2.55;2.15;;;;;;;;;;6179853;28;20047;-69
2022/08/07 08:08:15;;;;;;;2.72;2.03;;;;;;;;;;6182492;28;20051;-71
2022/08/07 08:11:17;;;;;;;4.20;2.00;;;;;;;;;;6180893;28;20058;-68
2022/08/07 08:14:20;;;;;;;2.20;2.00;;;;;;;;;;6181499;28;20461;-69
2022/08/07 08:17:22;;;;;;;3.25;1.98;;;;;;;;;;6184828;28;20058;-68
2022/08/07 08:20:25;;;;;;;2.28;2.00;;;;;;;;;;6181006;28;20058;-70
2022/08/07 08:27:05;;;;;;;2.22;2.03;;;;;;;;;;6185105;28;20237;-69
2022/08/07 08:30:10;;;;;;;2.10;1.90;;;;;;;;;;6182594;28;20282;-71
2022/08/07 08:33:15;;;;;;;4.22;2.28;;;;;;;;;;6183231;28;20050;-72
2022/08/07 08:36:18;;;;;;;3.10;2.10;;;;;;;;;;6182978;28;20046;-70
2022/08/07 08:39:21;;;;;;;3.47;2.08;;;;;;;;;;6179730;28;20069;-69
2022/08/07 08:42:26;;;;;;;2.78;2.45;;;;;;;;;;6179382;28;20055;-70
2022/08/07 08:45:37;;;;;;;2.78;2.20;;;;;;;;;;6180925;28;20292;-70
2022/08/07 08:48:43;;;;;;;4.63;2.50;;;;;;;;;;6181639;28;20061;-69
2022/08/07 08:51:52;;;;;;;3.65;2.80;;;;;;;;;;6182084;28;20329;-71
2022/08/07 08:54:58;;;;;;;2.50;2.30;;;;;;;;;;6181043;28;20073;-70
2022/08/07 08:58:06;;;;;;;2.70;2.35;;;;;;;;;;6182883;28;20047;-69
2022/08/07 09:01:14;;;;;;;2.88;2.58;;;;;;;;;;6179140;28;20210;-70
2022/08/07 09:04:21;;;;;;;2.83;2.60;;;;;;;;;;6179847;28;20051;-73
2022/08/07 09:07:31;;;;;;;3.88;2.30;;;;;;;;;;6181712;28;20277;-71
2022/08/07 09:10:39;;;;;;;2.25;2.05;;;;;;;;;;6182784;28;20880;-71
2022/08/07 09:13:50;;;;;;;3.65;2.63;;;;;;;;;;6180169;28;20043;-72
2022/08/07 09:17:00;;;;;;;3.13;2.47;;;;;;;;;;6182373;28;20057;-70
2022/08/07 09:20:06;;;;;;;2.88;2.42;;;;;;;;;;6184052;28;20041;-69
2022/08/07 09:23:17;;;;;;;4.75;2.30;;;;;;;;;;6180790;28;20058;-70
2022/08/07 09:26:25;;;;;;;2.63;2.05;;;;;;;;;;6178719;28;20055;-70
2022/08/07 09:29:35;;;;;;;2.15;1.95;;;;;;;;;;6178396;28;20109;-70
2022/08/07 09:32:53;;;;;;;2.83;2.30;;;;;;;;;;6182926;28;20051;-70
2022/08/07 09:35:59;;;;;;;4.60;3.25;;;;;;;;;;6180514;28;20051;-69
2022/08/07 09:39:12;;;;;;;4.60;4.20;;;;;;;;;;6178926;28;20253;-70
2022/08/07 09:42:26;;;;;;;5.20;3.97;;;;;;;;;;6181180;28;20108;-70
2022/08/07 09:45:38;;;;;;;5.85;4.45;;;;;;;;;;6182801;28;20054;-72
2022/08/07 09:48:49;;;;;;;4.07;3.50;;;;;;;;;;6186008;28;20388;-70
2022/08/07 09:52:00;;;;;;;7.47;4.50;;;;;;;;;;6183508;28;20097;-70
2022/08/07 09:55:06;;;;;;;5.38;4.38;;;;;;;;;;6186999;28;20079;-70
2022/08/07 09:58:37;;;;;;;4.25;3.20;;;;;;;;;;6185175;28;20043;-70
2022/08/07 10:01:55;;;;;;;4.60;3.80;;;;;;;;;;6185548;28;20047;-69
2022/08/07 10:05:21;;;;;;;4.20;3.25;;;;;;;;;;6187797;28;20057;-69
2022/08/07 10:08:42;;;;;;;5.45;3.25;;;;;;;;;;6183616;28;20368;-70
2022/08/07 10:11:58;;;;;;;6.30;3.25;;;;;;;;;;6184097;28;20054;-70
2022/08/07 10:15:26;;;;;;;6.05;2.80;;;;;;;;;;6181664;28;20072;-71
2022/08/07 10:18:39;;;;;;;4.13;3.17;;;;;;;;;;6175411;28;20105;-69
2022/08/07 10:21:49;;;;;;;6.47;3.20;;;;;;;;;;6186630;28;20360;-71
2022/08/07 10:25:04;;;;;;;2.95;2.75;;;;;;;;;;6186566;28;20233;-70
2022/08/07 10:28:22;;;;;;;3.38;2.17;;;;;;;;;;6182881;28;20113;-72
2022/08/07 10:31:43;;;;;;;3.42;2.60;;;;;;;;;;6189365;28;20056;-71
2022/08/07 10:34:56;;;;;;;2.60;2.10;;;;;;;;;;6185733;28;20073;-72
2022/08/07 10:38:11;;;;;;;3.75;2.35;;;;;;;;;;6187920;28;20101;-70
2022/08/07 10:41:18;;;;;;;7.97;2.60;;;;;;;;;;6184246;28;20059;-70
2022/08/07 10:44:26;;;;;;;2.70;2.50;;;;;;;;;;6183601;28;20046;-70
2022/08/07 10:47:35;;;;;;;2.80;2.50;;;;;;;;;;6182077;28;20058;-70
2022/08/07 10:50:45;;;;;;;2.28;2.03;;;;;;;;;;6186829;28;20348;-70
2022/08/07 10:53:52;;;;;;;2.35;2.15;;;;;;;;;;6184626;28;20078;-70
2022/08/07 10:57:03;;;;;;;2.97;1.80;;;;;;;;;;6182935;28;20069;-73
2022/08/07 11:00:09;;;;;;;4.03;2.05;;;;;;;;;;6184326;28;20094;-70
2022/08/07 11:03:15;;;;;;;1.50;1.40;;;;;;;;;;6182381;28;20050;-70
2022/08/07 11:06:20;;;;;;;1.58;1.42;;;;;;;;;;6181248;28;20313;-70
2022/08/07 11:09:27;;;;;;;3.85;2.28;;;;;;;;;;6181419;28;20101;-72
2022/08/07 11:12:33;;;;;;;7.05;2.10;;;;;;;;;;6183174;28;20057;-70
2022/08/07 11:15:39;;;;;;;2.47;1.77;;;;;;;;;;6185036;28;20058;-70
2022/08/07 11:18:48;;;;;;;2.00;1.80;;;;;;;;;;6183022;28;20047;-70
2022/08/07 11:21:55;;;;;;;2.15;1.90;;;;;;;;;;6181476;28;20106;-73
2022/08/07 11:25:05;;;;;;;3.25;2.38;;;;;;;;;;6182685;28;20062;-70
2022/08/07 11:28:11;;;;;;;3.65;2.13;;;;;;;;;;6183070;28;20078;-70
2022/08/07 11:31:20;;;;;;;4.80;2.20;;;;;;;;;;6182368;28;20059;-70
2022/08/07 11:34:27;;;;;;;3.47;2.10;;;;;;;;;;6181629;28;20065;-70
2022/08/07 11:37:42;;;;;;;2.28;2.00;;;;;;;;;;6181774;28;20048;-70
2022/08/07 11:40:49;;;;;;;6.63;1.98;;;;;;;;;;6181196;28;20047;-70
2022/08/07 11:43:59;;;;;;;2.40;2.20;;;;;;;;;;6181859;28;20046;-70
2022/08/07 11:47:05;;;;;;;2.67;2.47;;;;;;;;;;6182726;28;20356;-71
2022/08/07 11:50:26;;;;;;;4.13;2.22;;;;;;;;;;6182114;28;20345;-70
2022/08/07 11:53:37;;;;;;;2.53;2.30;;;;;;;;;;6181585;28;20159;-70
2022/08/07 11:56:57;;;;;;;3.05;2.33;;;;;;;;;;6179836;28;20325;-70
2022/08/07 12:00:05;;;;;;;5.45;2.10;;;;;;;;;;6182913;28;20050;-71
2022/08/07 12:03:36;;;;;;;3.33;3.05;;;;;;;;;;6181954;28;20058;-73
2022/08/07 12:06:45;;;;;;;3.57;3.23;;;;;;;;;;6156237;28;20241;-70
2022/08/07 12:09:50;;;;;;;2.42;2.15;;;;;;;;;;6180480;28;20122;-69
2022/08/07 12:12:58;;;;;;;4.93;2.60;;;;;;;;;;6181593;28;20380;-70
2022/08/07 12:16:04;;;;;;;2.60;2.40;;;;;;;;;;6184125;28;20046;-70
2022/08/07 12:19:13;;;;;;;2.38;2.10;;;;;;;;;;6182206;28;20368;-70
2022/08/07 12:22:20;;;;;;;4.70;2.47;;;;;;;;;;6179739;28;20051;-70
2022/08/07 12:28:53;;;;;;;2.75;2.28;;;;;;;;;;6181525;28;20333;-70
2022/08/07 12:31:59;;;;;;;3.63;2.25;;;;;;;;;;6183510;28;20046;-73
2022/08/07 12:35:03;;;;;;;2.30;1.80;;;;;;;;;;6182707;28;20062;-72
2022/08/07 12:38:05;;;;;;;3.72;2.20;;;;;;;;;;6183756;28;20125;-70
2022/08/07 12:41:07;;;;;;;2.45;1.90;;;;;;;;;;6179150;28;20054;-70
2022/08/07 12:44:11;;;;;;;2.72;1.98;;;;;;;;;;6183005;28;20042;-71
2022/08/07 12:47:21;;;;;;;2.17;1.85;;;;;;;;;;6180639;28;20062;-70
2022/08/07 12:50:31;;;;;;;2.17;1.95;;;;;;;;;;6181668;28;20074;-70
2022/08/07 12:53:35;;;;;;;2.90;2.22;;;;;;;;;;6179732;28;20253;-70
2022/08/07 12:56:43;;;;;;;2.83;2.33;;;;;;;;;;6181526;28;20055;-70
2022/08/07 12:59:47;;;;;;;3.42;2.20;;;;;;;;;;6179662;28;20058;-71
2022/08/07 13:03:00;;;;;;;2.05;1.85;;;;;;;;;;6182087;28;20105;-70
2022/08/07 13:06:12;;;;;;;3.05;2.00;;;;;;;;;;6181559;28;20047;-72
2022/08/07 13:09:20;;;;;;;2.20;2.00;;;;;;;;;;6183326;28;20050;-71
2022/08/07 13:12:27;;;;;;;3.25;2.08;;;;;;;;;;6182356;28;20062;-71
2022/08/07 13:15:37;;;;;;;2.55;1.75;;;;;;;;;;6183693;28;20065;-70
2022/08/07 13:18:45;;;;;;;2.70;2.15;;;;;;;;;;6183143;28;20046;-70
2022/08/07 13:21:54;;;;;;;3.60;1.70;;;;;;;;;;6186889;28;20043;-70
2022/08/07 13:25:00;;;;;;;2.97;2.00;;;;;;;;;;6187547;28;20337;-73
2022/08/07 13:28:03;;;;;;;3.05;2.30;;;;;;;;;;6187313;28;20066;-70
2022/08/07 13:31:11;;;;;;;2.65;2.03;;;;;;;;;;6185867;28;20055;-70
2022/08/07 13:34:23;;;;;;;1.80;1.60;;;;;;;;;;6185447;28;20047;-70
2022/08/07 13:37:29;;;;;;;1.98;1.40;;;;;;;;;;6185475;28;20119;-70
2022/08/07 13:40:35;;;;;;;2.20;2.00;;;;;;;;;;6184519;28;20043;-71
2022/08/07 13:43:41;;;;;;;2.60;1.95;;;;;;;;;;6185880;28;20256;-71
2022/08/07 13:46:47;;;;;;;2.83;2.00;;;;;;;;;;6187956;28;20066;-70
2022/08/07 13:49:49;;;;;;;1.70;1.60;;;;;;;;;;6185412;28;20282;-71
2022/08/07 13:52:52;;;;;;;1.75;1.60;;;;;;;;;;6183708;28;20053;-70
2022/08/07 13:55:56;;;;;;;3.42;1.70;;;;;;;;;;6184162;28;20046;-72
2022/08/07 13:59:01;;;;;;;1.77;1.52;;;;;;;;;;6185037;28;20318;-70
2022/08/07 14:02:08;;;;;;;1.77;1.50;;;;;;;;;;6183642;28;20043;-70
2022/08/07 14:05:13;;;;;;;3.17;1.60;;;;;;;;;;6185713;28;20058;-69
2022/08/07 14:08:15;;;;;;;1.45;1.35;;;;;;;;;;6185747;28;20098;-71
2022/08/07 14:11:18;;;;;;;1.75;1.38;;;;;;;;;;6186788;28;20046;-71
2022/08/07 14:14:24;;;;;;;3.17;1.33;;;;;;;;;;6183071;28;20046;-70
2022/08/07 14:17:28;;;;;;;2.03;1.50;;;;;;;;;;6186548;28;20050;-72
2022/08/07 14:20:31;;;;;;;2.35;1.20;;;;;;;;;;6188654;28;20046;-70
2022/08/07 14:23:35;;;;;;;3.55;1.50;;;;;;;;;;6186008;28;20211;-70
2022/08/07 14:26:40;;;;;;;1.55;1.40;;;;;;;;;;6185302;28;20117;-70
2022/08/07 14:29:47;;;;;;;2.28;1.77;;;;;;;;;;6182651;28;20062;-70
2022/08/07 14:32:56;;;;;;;1.85;1.70;;;;;;;;;;6186321;28;20218;-70
2022/08/07 14:35:59;;;;;;;2.40;1.58;;;;;;;;;;6182832;28;20057;-71
2022/08/07 14:39:02;;;;;;;1.55;1.25;;;;;;;;;;6182182;28;20051;-71
2022/08/07 14:42:06;;;;;;;1.70;1.60;;;;;;;;;;6182927;28;20101;-71
2022/08/07 14:45:11;;;;;;;3.60;1.50;;;;;;;;;;6181747;28;20054;-70
2022/08/07 14:48:17;;;;;;;1.80;1.70;;;;;;;;;;6182636;28;20265;-71
2022/08/07 14:51:21;;;;;;;3.90;1.77;;;;;;;;;;6181191;28;20054;-72
2022/08/07 14:54:24;;;;;;;1.73;1.63;;;;;;;;;;6185554;28;20071;-70
2022/08/07 14:57:26;;;;;;;2.08;1.50;;;;;;;;;;6181559;28;20051;-70
2022/08/07 15:00:30;;;;;;;1.60;1.50;;;;;;;;;;6182380;28;20093;-70
2022/08/07 15:03:34;;;;;;;1.70;1.60;;;;;;;;;;6183543;28;20057;-70
2022/08/07 15:06:38;;;;;;;4.63;1.75;;;;;;;;;;6183463;28;20299;-70
2022/08/07 15:09:41;;;;;;;2.20;1.50;;;;;;;;;;6183021;28;20122;-70
2022/08/07 15:12:43;;;;;;;2.22;1.65;;;;;;;;;;6183367;28;20337;-70
2022/08/07 15:15:47;;;;;;;1.70;1.60;;;;;;;;;;6184643;28;20057;-70
2022/08/07 15:18:54;;;;;;;1.50;1.40;;;;;;;;;;6184667;28;20058;-71
2022/08/07 15:21:58;;;;;;;1.60;1.38;;;;;;;;;;6181288;28;20257;-70
2022/08/07 15:25:03;;;;;;;1.52;1.42;;;;;;;;;;6183171;28;20233;-72
2022/08/07 15:28:06;;;;;;;2.42;1.40;;;;;;;;;;6184621;28;20101;-70
2022/08/07 15:31:10;;;;;;;2.25;1.40;;;;;;;;;;6183050;28;20080;-70
2022/08/07 15:34:15;;;;;;;3.38;1.42;;;;;;;;;;6183334;28;20345;-70
2022/08/07 15:37:17;;;;;;;2.45;1.52;;;;;;;;;;6183181;28;20059;-70
2022/08/07 15:40:20;;;;;;;2.55;1.30;;;;;;;;;;6183105;28;20070;-70
2022/08/07 15:43:24;;;;;;;1.40;1.30;;;;;;;;;;6180460;28;20230;-69
2022/08/07 15:46:27;;;;;;;1.45;1.35;;;;;;;;;;6182181;28;20344;-71
2022/08/07 15:49:34;;;;;;;1.70;1.30;;;;;;;;;;6181353;28;20333;-71
2022/08/07 15:52:37;;;;;;;3.00;1.50;;;;;;;;;;6182877;28;20242;-70
2022/08/07 15:55:40;;;;;;;3.03;1.27;;;;;;;;;;6183958;28;20046;-69
2022/08/07 15:58:48;;;;;;;1.30;1.20;;;;;;;;;;6180070;28;20050;-70
2022/08/07 16:01:53;;;;;;;1.42;1.25;;;;;;;;;;6184150;28;20046;-70
2022/08/07 16:04:59;;;;;;;1.40;1.30;;;;;;;;;;6181093;28;20297;-70
2022/08/07 16:08:09;;;;;;;2.08;1.83;;;;;;;;;;6183393;28;20289;-70
2022/08/07 16:11:19;;;;;;;1.50;1.40;;;;;;;;;;6183470;28;20345;-69
2022/08/07 16:14:34;;;;;;;1.52;1.20;;;;;;;;;;6181212;28;20058;-70
2022/08/07 16:17:47;;;;;;;1.52;1.20;;;;;;;;;;6185371;28;20042;-71
2022/08/07 16:20:54;;;;;;;2.55;1.40;;;;;;;;;;6184803;28;20055;-72
2022/08/07 16:24:00;;;;;;;1.38;1.20;;;;;;;;;;6180798;28;20058;-69
2022/08/07 16:27:10;;;;;;;1.60;1.30;;;;;;;;;;6180828;28;20056;-70
2022/08/07 16:30:14;;;;;;;2.17;1.77;;;;;;;;;;6180166;28;20062;-69
2022/08/07 16:33:16;;;;;;;3.78;1.40;;;;;;;;;;6183817;28;20057;-69
2022/08/07 16:36:34;;;;;;;2.15;1.50;;;;;;;;;;6180202;28;20102;-70
2022/08/07 16:40:13;;;;;;;2.42;1.35;;;;;;;;;;6184871;28;20088;-70
2022/08/07 16:43:37;;;;;;;1.70;1.60;;;;;;;;;;6180836;28;20055;-69
2022/08/07 16:46:49;;;;;;;1.38;1.27;;;;;;;;;;6182247;28;20043;-69
2022/08/07 16:50:26;;;;;;;1.98;1.58;;;;;;;;;;6180129;28;20125;-70
2022/08/07 16:53:43;;;;;;;1.75;1.48;;;;;;;;;;6183156;28;20058;-69
2022/08/07 16:56:51;;;;;;;2.97;1.40;;;;;;;;;;6185461;28;20344;-70
2022/08/07 16:59:58;;;;;;;1.50;1.38;;;;;;;;;;6185508;28;20058;-70
2022/08/07 17:03:19;;;;;;;2.58;1.60;;;;;;;;;;6187846;28;20053;-70
2022/08/07 17:06:37;;;;;;;2.15;1.75;;;;;;;;;;6187632;28;20039;-69
2022/08/07 17:09:52;;;;;;;2.15;1.75;;;;;;;;;;6184272;28;20057;-70
2022/08/07 17:13:00;;;;;;;1.50;1.40;;;;;;;;;;6185676;28;20061;-69
2022/08/07 17:16:06;;;;;;;2.42;1.75;;;;;;;;;;6187542;28;20046;-69
2022/08/07 17:19:11;;;;;;;3.00;1.40;;;;;;;;;;6190133;28;20054;-70
2022/08/07 17:22:16;;;;;;;1.92;1.65;;;;;;;;;;6189367;28;20261;-69
2022/08/07 17:25:20;;;;;;;2.88;1.30;;;;;;;;;;6186317;28;20089;-70
2022/08/07 17:28:25;;;;;;;3.85;1.85;;;;;;;;;;6185004;28;20448;-69
2022/08/07 17:31:40;;;;;;;3.45;1.50;;;;;;;;;;6185364;28;20051;-69
2022/08/07 17:34:46;;;;;;;1.52;1.42;;;;;;;;;;6187932;28;20255;-69
2022/08/07 17:37:54;;;;;;;4.00;1.85;;;;;;;;;;6183837;28;20050;-70
2022/08/07 17:41:07;;;;;;;1.90;1.45;;;;;;;;;;6186258;28;20084;-69
2022/08/07 17:44:11;;;;;;;1.65;1.50;;;;;;;;;;6183971;28;20042;-69
2022/08/07 17:47:16;;;;;;;2.83;1.35;;;;;;;;;;6186799;28;20059;-70
2022/08/07 17:50:19;;;;;;;2.33;1.40;;;;;;;;;;6183519;28;20078;-69
2022/08/07 17:53:28;;;;;;;1.98;1.30;;;;;;;;;;6185817;28;20055;-70
2022/08/07 17:56:32;;;;;;;1.58;1.30;;;;;;;;;;6186309;28;20114;-69
2022/08/07 17:59:40;;;;;;;4.63;1.40;;;;;;;;;;6186289;28;20047;-69
2022/08/07 18:02:44;;;;;;;2.72;1.30;;;;;;;;;;6184274;28;20059;-69
2022/08/07 18:05:52;;;;;;;1.88;1.50;;;;;;;;;;6183593;28;20054;-69
2022/08/07 18:08:56;;;;;;;1.58;1.27;;;;;;;;;;6184627;28;20046;-72
2022/08/07 18:12:06;;;;;;;2.35;1.40;;;;;;;;;;6184470;28;20043;-70
2022/08/07 18:15:12;;;;;;;2.25;1.60;;;;;;;;;;6187297;28;20385;-70
2022/08/07 18:18:17;;;;;;;4.40;2.33;;;;;;;;;;6182051;28;20296;-69
2022/08/07 18:21:24;;;;;;;1.50;1.27;;;;;;;;;;6183932;28;20057;-73
2022/08/07 18:24:32;;;;;;;3.85;1.40;;;;;;;;;;6184506;28;20412;-70
2022/08/07 18:28:02;;;;;;;2.47;1.55;;;;;;;;;;6183768;28;20053;-70
2022/08/07 18:31:05;;;;;;;1.65;1.38;;;;;;;;;;6179937;28;20058;-69
2022/08/07 18:34:17;;;;;;;2.35;1.50;;;;;;;;;;6182110;28;20281;-70
2022/08/07 18:37:25;;;;;;;2.15;1.48;;;;;;;;;;6182359;28;20047;-69
2022/08/07 18:40:30;;;;;;;2.03;1.60;;;;;;;;;;6185456;28;20053;-70
2022/08/07 18:43:45;;;;;;;2.25;1.67;;;;;;;;;;6191089;28;20391;-69
2022/08/07 18:46:52;;;;;;;2.72;1.73;;;;;;;;;;6184749;28;20085;-70